createdAt,value
2023-02-11T00:01:20.607Z,6.40
2023-02-11T00:03:48.887Z,6.30
2023-02-11T00:06:18.929Z,6.30
2023-02-11T00:08:47.594Z,6.30
2023-02-11T00:11:17.020Z,6.30
2023-02-11T00:13:46.364Z,6.30
2023-02-11T00:16:16.437Z,6.20
2023-02-11T00:18:44.964Z,6.20
2023-02-11T00:21:15.564Z,6.20
2023-02-11T00:23:46.246Z,6.20
2023-02-11T00:26:15.147Z,6.20
2023-02-11T00:28:45.073Z,6.20
2023-02-11T00:31:13.602Z,6.10
2023-02-11T00:33:41.867Z,6.10
2023-02-11T00:36:12.967Z,6.10
2023-02-11T00:38:41.228Z,6.10
2023-02-11T00:41:10.894Z,6.10
2023-02-11T00:43:39.241Z,6.10
2023-02-11T00:46:07.884Z,6.10
2023-02-11T00:48:36.389Z,6.10
2023-02-11T00:51:05.456Z,6.10
2023-02-11T00:53:34.137Z,6.10
2023-02-11T00:56:02.599Z,6.10
2023-02-11T00:58:32.492Z,6.10
2023-02-11T01:01:00.741Z,6.10
2023-02-11T01:03:29.267Z,6.10
2023-02-11T01:05:57.611Z,6.10
2023-02-11T01:08:26.033Z,6.10
2023-02-11T01:10:58.847Z,6.10
2023-02-11T01:13:27.841Z,6.10
2023-02-11T01:15:58.127Z,6.10
2023-02-11T01:18:26.930Z,6.10
2023-02-11T01:20:55.650Z,6.10
2023-02-11T01:23:24.889Z,6.00
2023-02-11T01:25:54.401Z,6.00
2023-02-11T01:28:24.402Z,6.00
2023-02-11T01:30:54.275Z,6.00
2023-02-11T01:33:24.873Z,6.00
2023-02-11T01:35:53.589Z,6.00
2023-02-11T01:38:26.518Z,5.90
2023-02-11T01:40:57.018Z,6.00
2023-02-11T01:43:27.299Z,5.90
2023-02-11T01:46:21.240Z,6.00
2023-02-11T01:48:54.177Z,5.90
2023-02-11T01:51:25.515Z,5.90
2023-02-11T01:54:13.022Z,6.00
2023-02-11T01:57:02.482Z,5.90
2023-02-11T01:59:34.393Z,5.90
2023-02-11T02:02:07.801Z,5.90
2023-02-11T02:04:45.598Z,5.80
2023-02-11T02:07:20.894Z,5.80
2023-02-11T02:09:53.738Z,5.80
2023-02-11T02:12:21.944Z,5.90
2023-02-11T02:14:50.370Z,5.80
2023-02-11T02:17:30.140Z,5.80
2023-02-11T02:20:40.861Z,5.80
2023-02-11T02:23:25.743Z,5.90
2023-02-11T02:26:16.207Z,5.80
2023-02-11T02:29:15.734Z,5.80
2023-02-11T02:32:03.559Z,5.70
2023-02-11T02:34:43.203Z,5.70
2023-02-11T02:37:18.478Z,5.70
2023-02-11T02:39:49.592Z,5.70
2023-02-11T02:42:19.451Z,5.70
2023-02-11T02:44:50.384Z,5.70
2023-02-11T02:47:18.675Z,5.70
2023-02-11T02:49:48.271Z,5.70
2023-02-11T02:52:23.857Z,5.70
2023-02-11T02:55:21.027Z,5.70
2023-02-11T02:58:06.743Z,5.70
2023-02-11T03:00:44.252Z,5.70
2023-02-11T03:03:23.200Z,5.80
2023-02-11T03:05:58.033Z,5.60
2023-02-11T03:08:31.677Z,5.70
2023-02-11T03:11:02.228Z,5.70
2023-02-11T03:13:33.785Z,5.70
2023-02-11T03:16:07.191Z,5.70
2023-02-11T03:18:37.951Z,5.80
2023-02-11T03:21:10.112Z,5.70
2023-02-11T03:23:41.504Z,5.70
2023-02-11T03:26:16.255Z,5.70
2023-02-11T03:28:50.950Z,5.80
2023-02-11T03:31:26.804Z,5.80
2023-02-11T03:34:02.355Z,5.80
2023-02-11T03:36:37.594Z,5.80
2023-02-11T03:39:07.003Z,5.80
2023-02-11T03:41:36.870Z,5.90
2023-02-11T03:44:07.298Z,5.80
2023-02-11T03:46:39.972Z,5.80
2023-02-11T03:49:14.460Z,5.90
2023-02-11T03:51:45.220Z,5.80
2023-02-11T03:54:17.640Z,5.80
2023-02-11T03:56:52.064Z,5.80
2023-02-11T03:59:20.687Z,5.90
2023-02-11T04:01:49.022Z,5.80
2023-02-11T04:04:17.716Z,5.80
2023-02-11T04:06:47.665Z,5.80
2023-02-11T04:09:16.120Z,5.80
2023-02-11T04:11:44.420Z,5.70
2023-02-11T04:14:12.647Z,5.70
2023-02-11T04:16:40.923Z,5.80
2023-02-11T04:19:09.214Z,5.80
2023-02-11T04:21:37.430Z,5.80
2023-02-11T04:24:07.453Z,5.80
2023-02-11T04:26:35.689Z,5.90
2023-02-11T04:29:03.909Z,5.90
2023-02-11T04:31:32.734Z,5.80
2023-02-11T04:34:00.992Z,5.80
2023-02-11T04:36:29.196Z,5.70
2023-02-11T04:38:57.445Z,5.70
2023-02-11T04:41:27.098Z,5.70
2023-02-11T04:43:55.371Z,5.70
2023-02-11T04:46:23.699Z,5.70
2023-02-11T04:48:52.021Z,5.70
2023-02-11T04:51:20.242Z,5.70
2023-02-11T04:53:48.521Z,5.70
2023-02-11T04:56:16.742Z,5.70
2023-02-11T04:58:46.566Z,5.70
2023-02-11T05:01:16.378Z,5.70
2023-02-11T05:03:44.874Z,5.70
2023-02-11T05:06:13.374Z,5.60
2023-02-11T05:08:41.581Z,5.60
2023-02-11T05:11:09.889Z,5.60
2023-02-11T05:13:38.191Z,5.50
2023-02-11T05:16:08.238Z,5.50
2023-02-11T05:18:39.326Z,5.50
2023-02-11T05:21:08.513Z,5.50
2023-02-11T05:23:37.085Z,5.50
2023-02-11T05:26:06.081Z,5.50
2023-02-11T05:28:35.300Z,5.50
2023-02-11T05:31:04.076Z,5.50
2023-02-11T05:33:34.070Z,5.50
2023-02-11T05:36:03.830Z,5.50
2023-02-11T05:38:32.099Z,5.50
2023-02-11T05:41:00.537Z,5.60
2023-02-11T05:43:28.929Z,5.60
2023-02-11T05:45:57.242Z,5.60
2023-02-11T05:48:25.509Z,5.60
2023-02-11T05:50:55.132Z,5.60
2023-02-11T05:53:23.481Z,5.60
2023-02-11T05:55:51.890Z,5.50
2023-02-11T05:58:20.417Z,5.60
2023-02-11T06:00:48.826Z,5.60
2023-02-11T06:03:17.092Z,5.60
2023-02-11T06:05:46.002Z,5.60
2023-02-11T06:08:55.568Z,5.60
2023-02-11T06:11:29.664Z,5.60
2023-02-11T06:14:20.089Z,5.60
2023-02-11T06:16:57.812Z,4.90
2023-02-11T06:20:04.760Z,5.60
2023-02-11T06:22:56.742Z,5.60
2023-02-11T06:25:43.552Z,5.50
2023-02-11T06:28:12.407Z,5.70
2023-02-11T06:30:48.312Z,5.70
2023-02-11T06:33:36.544Z,5.70
2023-02-11T06:36:22.653Z,5.70
2023-02-11T06:39:06.969Z,5.70
2023-02-11T06:42:11.158Z,5.20
2023-02-11T06:45:12.226Z,5.70
2023-02-11T06:47:49.817Z,5.70
2023-02-11T06:50:39.838Z,5.70
2023-02-11T06:53:43.299Z,5.70
2023-02-11T06:56:22.186Z,5.60
2023-02-11T06:59:00.220Z,5.70
2023-02-11T07:01:34.092Z,5.70
2023-02-11T07:04:16.938Z,5.80
2023-02-11T07:07:02.517Z,5.80
2023-02-11T07:09:48.797Z,5.70
2023-02-11T07:12:17.470Z,5.80
2023-02-11T07:15:10.624Z,5.80
2023-02-11T07:17:45.281Z,5.80
2023-02-11T07:20:34.264Z,5.80
2023-02-11T07:23:31.335Z,5.80
2023-02-11T07:26:54.000Z,5.80
2023-02-11T07:29:28.639Z,6.40
2023-02-11T07:32:21.491Z,5.80
2023-02-11T07:34:59.503Z,5.80
2023-02-11T07:37:51.570Z,5.70
2023-02-11T07:40:26.902Z,5.80
2023-02-11T07:43:34.611Z,5.60
2023-02-11T07:46:47.341Z,6.00
2023-02-11T07:49:56.772Z,5.90
2023-02-11T07:52:32.086Z,5.90
2023-02-11T07:55:23.228Z,5.90
2023-02-11T07:58:02.410Z,5.90
2023-02-11T08:00:56.921Z,5.90
2023-02-11T08:06:34.771Z,5.90
2023-02-11T08:09:15.140Z,5.90
2023-02-11T08:11:54.681Z,5.40
2023-02-11T08:14:42.263Z,5.90
2023-02-11T08:17:26.477Z,5.90
2023-02-11T08:20:10.613Z,6.00
2023-02-11T08:23:09.653Z,6.10
2023-02-11T08:25:53.472Z,6.00
2023-02-11T08:28:38.181Z,6.00
2023-02-11T08:31:20.679Z,6.00
2023-02-11T08:34:24.993Z,6.00
2023-02-11T08:40:16.329Z,5.90
2023-02-11T08:43:17.150Z,6.00
2023-02-11T08:48:40.221Z,6.00
2023-02-11T08:51:24.945Z,6.10
2023-02-11T08:54:23.478Z,5.60
2023-02-11T08:57:34.999Z,6.00
2023-02-11T09:00:26.090Z,6.00
2023-02-11T09:03:48.597Z,5.90
2023-02-11T09:06:29.297Z,6.10
2023-02-11T09:09:05.576Z,6.20
2023-02-11T09:11:57.275Z,6.20
2023-02-11T09:15:05.671Z,6.20
2023-02-11T09:18:04.521Z,6.20
2023-02-11T09:21:26.587Z,6.20
2023-02-11T09:27:11.069Z,6.30
2023-02-11T09:33:46.360Z,6.30
2023-02-11T09:36:41.572Z,6.70
2023-02-11T09:39:32.413Z,6.30
2023-02-11T09:42:53.642Z,6.20
2023-02-11T09:45:28.189Z,6.30
2023-02-11T09:48:05.074Z,6.30
2023-02-11T09:50:43.580Z,6.30
2023-02-11T09:53:42.483Z,6.30
2023-02-11T09:56:29.204Z,5.60
2023-02-11T09:59:43.261Z,6.40
2023-02-11T10:02:52.702Z,7.30
2023-02-11T10:05:53.646Z,6.40
2023-02-11T10:08:43.284Z,6.60
2023-02-11T10:12:00.437Z,6.40
2023-02-11T10:15:34.587Z,6.40
2023-02-11T10:19:04.346Z,6.40
2023-02-11T10:22:39.204Z,6.40
2023-02-11T10:25:53.526Z,6.70
2023-02-11T10:28:52.345Z,6.30
2023-02-11T10:31:42.487Z,6.40
2023-02-11T10:34:17.240Z,6.50
2023-02-11T10:37:09.244Z,6.50
2023-02-11T10:40:03.019Z,6.50
2023-02-11T10:42:58.063Z,6.60
2023-02-11T10:45:44.853Z,7.30
2023-02-11T10:48:58.653Z,6.70
2023-02-11T10:52:06.620Z,6.70
2023-02-11T10:55:39.457Z,6.70
2023-02-11T10:58:29.440Z,7.30
2023-02-11T11:14:31.121Z,6.70
2023-02-11T11:17:40.297Z,6.70
2023-02-11T11:22:06.292Z,6.70
2023-02-11T11:25:29.890Z,6.90
2023-02-11T11:32:44.161Z,6.70
2023-02-11T11:35:46.635Z,6.80
2023-02-11T11:38:30.065Z,6.80
2023-02-11T11:41:37.787Z,6.80
2023-02-11T11:44:51.199Z,6.80
2023-02-11T11:47:57.117Z,6.80
2023-02-11T11:53:58.779Z,6.30
2023-02-11T11:56:33.562Z,6.90
2023-02-11T11:59:07.435Z,7.00
2023-02-11T12:01:49.598Z,6.90
2023-02-11T12:04:52.030Z,6.90
2023-02-11T12:08:04.510Z,6.90
2023-02-11T12:11:28.246Z,7.00
2023-02-11T12:14:25.752Z,6.90
2023-02-11T12:18:05.737Z,6.30
2023-02-11T12:21:26.291Z,6.90
2023-02-11T12:24:45.045Z,7.00
2023-02-11T12:28:06.303Z,6.80
2023-02-11T12:31:15.082Z,7.00
2023-02-11T12:34:19.099Z,7.00
2023-02-11T12:37:36.416Z,7.10
2023-02-11T12:40:33.259Z,7.00
2023-02-11T12:43:32.925Z,7.00
2023-02-11T12:46:55.167Z,7.10
2023-02-11T12:49:52.503Z,7.00
2023-02-11T12:53:00.653Z,7.10
2023-02-11T12:55:49.490Z,7.10
2023-02-11T12:58:35.531Z,7.10
2023-02-11T13:01:26.501Z,7.10
2023-02-11T13:07:54.452Z,5.90
2023-02-11T13:10:52.567Z,7.70
2023-02-11T13:13:28.093Z,7.10
2023-02-11T13:16:11.457Z,7.20
2023-02-11T13:19:01.221Z,7.10
2023-02-11T13:22:10.486Z,7.10
2023-02-11T13:25:24.401Z,6.40
2023-02-11T13:28:42.975Z,7.20
2023-02-11T13:31:34.478Z,7.10
2023-02-11T13:34:46.811Z,7.20
2023-02-11T13:37:40.529Z,7.20
2023-02-11T13:40:38.122Z,7.30
2023-02-11T13:43:40.793Z,7.30
2023-02-11T13:48:55.290Z,7.20
2023-02-11T13:51:37.399Z,7.30
2023-02-11T13:54:09.085Z,7.30
2023-02-11T13:56:39.999Z,7.30
2023-02-11T13:59:48.442Z,7.30
2023-02-11T14:02:44.400Z,7.30
2023-02-11T14:05:42.454Z,7.30
2023-02-11T14:08:39.405Z,7.40
2023-02-11T14:11:23.882Z,7.30
2023-02-11T14:14:23.937Z,7.30
2023-02-11T14:17:24.872Z,7.30
2023-02-11T14:19:53.461Z,7.30
2023-02-11T14:22:26.035Z,7.30
2023-02-11T14:24:57.724Z,7.30
2023-02-11T14:27:32.962Z,7.30
2023-02-11T14:30:25.452Z,7.30
2023-02-11T14:33:13.431Z,7.30
2023-02-11T14:35:51.332Z,7.30
2023-02-11T14:38:29.652Z,7.30
2023-02-11T14:41:03.153Z,7.30
2023-02-11T14:43:36.415Z,7.30
2023-02-11T14:46:06.585Z,7.30
2023-02-11T14:48:37.289Z,7.30
2023-02-11T14:51:10.521Z,7.30
2023-02-11T14:53:42.112Z,7.30
2023-02-11T14:56:17.991Z,7.40
2023-02-11T14:58:49.105Z,7.40
2023-02-11T15:01:31.681Z,7.40
2023-02-11T15:04:01.298Z,7.40
2023-02-11T15:06:32.844Z,7.30
2023-02-11T15:09:05.015Z,7.40
2023-02-11T15:11:39.377Z,7.40
2023-02-11T15:14:10.748Z,7.40
2023-02-11T15:16:44.795Z,7.40
2023-02-11T15:19:26.743Z,7.40
2023-02-11T15:21:56.753Z,7.40
2023-02-11T15:24:28.087Z,7.40
2023-02-11T15:27:01.114Z,7.50
2023-02-11T15:29:37.412Z,7.50
2023-02-11T15:32:16.837Z,7.50
2023-02-11T15:34:46.178Z,7.40
2023-02-11T15:37:17.776Z,7.50
2023-02-11T15:39:46.067Z,7.50
2023-02-11T15:42:18.587Z,7.50
2023-02-11T15:44:50.630Z,7.50
2023-02-11T15:47:25.956Z,7.50
2023-02-11T15:49:54.252Z,7.50
2023-02-11T15:52:29.048Z,7.60
2023-02-11T15:55:01.736Z,7.60
2023-02-11T15:57:30.577Z,7.50
2023-02-11T16:00:04.373Z,7.50
2023-02-11T16:02:45.210Z,7.50
2023-02-11T16:05:28.253Z,7.50
2023-02-11T16:07:56.926Z,7.50
2023-02-11T16:10:28.027Z,7.50
2023-02-11T16:13:18.516Z,7.60
2023-02-11T16:15:56.501Z,7.60
2023-02-11T16:18:38.288Z,7.60
2023-02-11T16:21:13.410Z,7.70
2023-02-11T16:23:43.249Z,7.60
2023-02-11T16:26:21.848Z,7.60
2023-02-11T16:28:50.417Z,7.50
2023-02-11T16:31:19.073Z,7.60
2023-02-11T16:33:48.842Z,7.70
2023-02-11T16:36:18.266Z,8.00
2023-02-11T16:38:46.503Z,8.30
2023-02-11T16:41:14.907Z,8.50
2023-02-11T16:43:45.420Z,8.50
2023-02-11T16:46:16.444Z,8.40
2023-02-11T16:48:45.124Z,8.40
2023-02-11T16:51:14.783Z,8.30
2023-02-11T16:53:43.048Z,8.30
2023-02-11T16:56:16.732Z,8.40
2023-02-11T16:58:45.501Z,8.40
2023-02-11T17:01:14.548Z,8.40
2023-02-11T17:03:43.815Z,8.40
2023-02-11T17:06:14.620Z,8.40
2023-02-11T17:08:43.081Z,8.40
2023-02-11T17:11:11.527Z,8.40
2023-02-11T17:13:41.960Z,8.40
2023-02-11T17:16:17.091Z,8.40
2023-02-11T17:18:45.434Z,8.50
2023-02-11T17:21:15.070Z,8.50
2023-02-11T17:23:45.773Z,8.60
2023-02-11T17:26:14.006Z,8.90
2023-02-11T17:28:42.216Z,8.90
2023-02-11T17:31:11.189Z,8.80
2023-02-11T17:33:39.621Z,8.70
2023-02-11T17:36:09.754Z,8.50
2023-02-11T17:38:39.588Z,8.40
2023-02-11T17:41:07.891Z,8.40
2023-02-11T17:43:36.129Z,8.40
2023-02-11T17:46:07.897Z,8.40
2023-02-11T17:48:37.657Z,8.30
2023-02-11T17:51:06.160Z,8.30
2023-02-11T17:53:34.427Z,8.30
2023-02-11T17:56:06.375Z,8.20
2023-02-11T17:58:34.594Z,8.20
2023-02-11T18:01:02.856Z,8.20
2023-02-11T18:03:31.184Z,8.20
2023-02-11T18:06:01.471Z,8.20
2023-02-11T18:08:30.299Z,8.20
2023-02-11T18:10:58.597Z,8.10
2023-02-11T18:13:29.241Z,8.10
2023-02-11T18:16:03.038Z,8.10
2023-02-11T18:18:31.370Z,8.10
2023-02-11T18:21:00.542Z,8.10
2023-02-11T18:23:29.731Z,8.10
2023-02-11T18:25:58.053Z,8.10
2023-02-11T18:28:27.867Z,8.10
2023-02-11T18:30:59.289Z,8.00
2023-02-11T18:33:28.229Z,8.00
2023-02-11T18:35:57.031Z,8.00
2023-02-11T18:38:25.897Z,7.90
2023-02-11T18:40:54.159Z,7.90
2023-02-11T18:43:22.427Z,7.90
2023-02-11T18:45:52.618Z,7.90
2023-02-11T18:48:21.046Z,8.00
2023-02-11T18:50:49.354Z,7.90
2023-02-11T18:53:17.651Z,8.00
2023-02-11T18:55:46.741Z,8.00
2023-02-11T18:58:15.681Z,7.90
2023-02-11T19:00:46.882Z,7.90
2023-02-11T19:03:16.482Z,7.90
2023-02-11T19:05:45.465Z,7.90
2023-02-11T19:08:14.267Z,7.80
2023-02-11T19:10:42.847Z,7.80
2023-02-11T19:13:12.619Z,7.80
2023-02-11T19:15:42.396Z,7.80
2023-02-11T19:18:10.756Z,7.80
2023-02-11T19:20:42.769Z,7.80
2023-02-11T19:23:11.809Z,7.80
2023-02-11T19:25:46.689Z,7.70
2023-02-11T19:28:15.499Z,7.70
2023-02-11T19:30:43.911Z,7.70
2023-02-11T19:33:12.272Z,7.70
2023-02-11T19:35:41.954Z,7.70
2023-02-11T19:38:10.141Z,7.70
2023-02-11T19:40:38.426Z,7.70
2023-02-11T19:43:06.654Z,7.70
2023-02-11T19:45:37.791Z,7.60
2023-02-11T19:48:06.412Z,7.60
2023-02-11T19:50:34.617Z,7.70
2023-02-11T19:53:04.205Z,7.60
2023-02-11T19:55:35.238Z,7.60
2023-02-11T19:58:03.538Z,7.60
2023-02-11T20:00:31.743Z,7.60
2023-02-11T20:03:00.123Z,7.60
2023-02-11T20:05:28.738Z,7.80
2023-02-11T20:07:57.048Z,8.00
2023-02-11T20:10:27.408Z,8.00
2023-02-11T20:12:55.917Z,8.00
2023-02-11T20:15:24.297Z,7.90
2023-02-11T20:17:52.552Z,8.00
2023-02-11T20:20:20.882Z,7.80
2023-02-11T20:22:49.150Z,8.00
2023-02-11T20:25:17.553Z,8.00
2023-02-11T20:27:47.337Z,8.10
2023-02-11T20:30:15.951Z,8.30
2023-02-11T20:32:44.289Z,8.30
2023-02-11T20:35:12.519Z,8.30
2023-02-11T20:37:43.781Z,8.20
2023-02-11T20:40:12.636Z,8.20
2023-02-11T20:42:40.878Z,8.20
2023-02-11T20:45:11.858Z,8.20
2023-02-11T20:47:40.120Z,8.10
2023-02-11T20:50:09.229Z,8.10
2023-02-11T20:52:37.458Z,8.20
2023-02-11T20:55:06.576Z,8.20
2023-02-11T20:57:35.260Z,8.20
2023-02-11T21:00:04.283Z,8.20
2023-02-11T21:02:33.891Z,8.10
2023-02-11T21:05:02.120Z,8.10
2023-02-11T21:07:31.368Z,8.10
2023-02-11T21:09:59.558Z,8.00
2023-02-11T21:12:27.867Z,8.00
2023-02-11T21:14:57.904Z,8.00
2023-02-11T21:17:26.612Z,8.00
2023-02-11T21:19:56.339Z,7.90
2023-02-11T21:22:24.812Z,7.90
2023-02-11T21:24:53.091Z,7.90
2023-02-11T21:27:21.277Z,8.00
2023-02-11T21:29:54.520Z,7.90
2023-02-11T21:32:23.170Z,7.80
2023-02-11T21:34:51.474Z,7.80
2023-02-11T21:37:21.151Z,7.80
2023-02-11T21:39:49.359Z,7.80
2023-02-11T21:42:17.716Z,7.80
2023-02-11T21:44:45.945Z,7.70
2023-02-11T21:47:14.206Z,7.70
2023-02-11T21:49:42.541Z,7.70
2023-02-11T21:52:10.793Z,7.60
2023-02-11T21:54:40.356Z,7.70
2023-02-11T21:57:09.168Z,7.60
2023-02-11T21:59:37.558Z,7.60
2023-02-11T22:02:05.834Z,7.60
2023-02-11T22:04:34.551Z,7.60
2023-02-11T22:07:03.361Z,7.60
2023-02-11T22:09:31.619Z,7.60
2023-02-11T22:12:01.189Z,7.60
2023-02-11T22:14:32.195Z,7.60
2023-02-11T22:17:00.600Z,7.60
2023-02-11T22:19:28.864Z,7.60
2023-02-11T22:21:57.130Z,7.60
2023-02-11T22:24:25.427Z,7.50
2023-02-11T22:26:53.672Z,7.60
2023-02-11T22:29:23.468Z,7.50
2023-02-11T22:31:51.699Z,7.60
2023-02-11T22:34:19.974Z,7.60
2023-02-11T22:36:48.378Z,7.60
2023-02-11T22:39:17.980Z,7.60
2023-02-11T22:41:48.204Z,7.60
2023-02-11T22:44:17.472Z,7.60
2023-02-11T22:46:47.121Z,7.60
2023-02-11T22:49:16.629Z,7.60
2023-02-11T22:51:45.228Z,7.60
2023-02-11T22:54:15.048Z,7.50
2023-02-11T22:56:43.687Z,7.60
2023-02-11T22:59:15.917Z,7.50
2023-02-11T23:01:44.910Z,7.50
2023-02-11T23:04:15.992Z,7.50
2023-02-11T23:06:44.536Z,7.50
2023-02-11T23:09:13.497Z,7.50
2023-02-11T23:11:42.129Z,7.50
2023-02-11T23:14:12.193Z,7.50
2023-02-11T23:16:41.033Z,7.50
2023-02-11T23:19:12.356Z,7.50
2023-02-11T23:21:42.154Z,7.50
2023-02-11T23:24:13.990Z,7.50
2023-02-11T23:26:43.276Z,7.50
2023-02-11T23:29:12.320Z,7.40
2023-02-11T23:31:43.945Z,7.50
2023-02-11T23:34:15.005Z,7.50
2023-02-11T23:36:45.080Z,7.40
2023-02-11T23:39:15.945Z,7.40
2023-02-11T23:41:44.671Z,7.40
2023-02-11T23:44:13.361Z,7.40
2023-02-11T23:46:41.626Z,7.40
2023-02-11T23:49:09.896Z,7.40
2023-02-11T23:51:38.263Z,7.40
2023-02-11T23:54:07.894Z,7.40
2023-02-11T23:56:37.537Z,7.40
2023-02-11T23:59:06.384Z,7.40
